Time;durP1;ratioP1;P1;durP2;ratioP2;P2;SDS_P1;SDS_P2;PMS_P1;PMS_P2;Temp;Humidity;BMP_temperature;BMP_pressure;BME280_temperature;BME280_humidity;BME280_pressure;Samples;Min_cycle;Max_cycle;Signal;HPM_P1;HPM_P2
2022/07/16 00:02:45;;;;;;;9.73;2.72;;;;;;;;;;5072314;28;20051;-65
2022/07/16 00:05:11;;;;;;;8.25;2.80;;;;;;;;;;5071830;28;20098;-64
2022/07/16 00:07:38;;;;;;;9.48;3.00;;;;;;;;;;5071597;28;20025;-64
2022/07/16 00:10:04;;;;;;;10.40;4.53;;;;;;;;;;5071619;28;20028;-64
2022/07/16 00:12:30;;;;;;;11.15;2.88;;;;;;;;;;5071893;28;20025;-64
2022/07/16 00:14:56;;;;;;;5.03;2.47;;;;;;;;;;5071792;28;20109;-65
2022/07/16 00:17:22;;;;;;;7.00;3.08;;;;;;;;;;5071863;28;20032;-65
2022/07/16 00:19:49;;;;;;;10.75;3.65;;;;;;;;;;5072123;28;20492;-65
2022/07/16 00:22:15;;;;;;;7.25;2.55;;;;;;;;;;5077092;28;20077;-64
2022/07/16 00:24:41;;;;;;;6.15;2.88;;;;;;;;;;5069650;28;20129;-65
2022/07/16 00:27:07;;;;;;;3.65;2.50;;;;;;;;;;5070867;28;20619;-64
2022/07/16 00:29:33;;;;;;;8.45;3.03;;;;;;;;;;5070774;28;20124;-65
2022/07/16 00:31:59;;;;;;;7.15;2.70;;;;;;;;;;5074213;28;20045;-65
2022/07/16 00:34:25;;;;;;;7.35;2.55;;;;;;;;;;5075644;28;20032;-64
2022/07/16 00:36:52;;;;;;;11.48;3.33;;;;;;;;;;5075475;28;20021;-64
2022/07/16 00:39:19;;;;;;;5.95;2.95;;;;;;;;;;5075582;28;20040;-65
2022/07/16 00:41:46;;;;;;;3.70;2.50;;;;;;;;;;5074635;28;20024;-65
2022/07/16 00:44:15;;;;;;;4.32;2.70;;;;;;;;;;5075675;28;20390;-65
2022/07/16 00:46:41;;;;;;;7.32;2.42;;;;;;;;;;5075192;28;20020;-64
2022/07/16 00:49:07;;;;;;;3.50;2.38;;;;;;;;;;5075301;28;20025;-65
2022/07/16 00:51:34;;;;;;;5.88;2.40;;;;;;;;;;5075159;28;20032;-65
2022/07/16 00:54:01;;;;;;;6.63;2.42;;;;;;;;;;5074929;28;20059;-64
2022/07/16 00:56:27;;;;;;;5.30;2.97;;;;;;;;;;5075340;28;20055;-65
2022/07/16 00:58:54;;;;;;;3.95;1.95;;;;;;;;;;5074441;28;20212;-65
2022/07/16 01:01:20;;;;;;;11.13;2.88;;;;;;;;;;5075160;28;20505;-65
2022/07/16 01:03:47;;;;;;;4.03;2.63;;;;;;;;;;5074795;28;20039;-65
2022/07/16 01:06:14;;;;;;;7.63;2.50;;;;;;;;;;5074541;28;20037;-64
2022/07/16 01:08:41;;;;;;;3.95;2.58;;;;;;;;;;5073843;28;20044;-65
2022/07/16 01:11:09;;;;;;;5.20;2.47;;;;;;;;;;5074421;28;20023;-65
2022/07/16 01:13:36;;;;;;;5.75;2.90;;;;;;;;;;5074689;28;20028;-65
2022/07/16 01:16:02;;;;;;;5.70;2.95;;;;;;;;;;5074505;28;20058;-64
2022/07/16 01:18:30;;;;;;;4.75;2.60;;;;;;;;;;5074986;28;20024;-65
2022/07/16 01:20:56;;;;;;;14.00;3.00;;;;;;;;;;5074678;28;20068;-64
2022/07/16 01:23:23;;;;;;;5.97;2.30;;;;;;;;;;5074638;28;20059;-65
2022/07/16 01:25:50;;;;;;;4.22;2.28;;;;;;;;;;5074675;28;20025;-65
2022/07/16 01:28:17;;;;;;;4.63;2.92;;;;;;;;;;5074582;28;20120;-65
2022/07/16 01:30:43;;;;;;;4.50;2.70;;;;;;;;;;5073961;28;20029;-64
2022/07/16 01:33:29;;;;;;;8.55;2.95;;;;;;;;;;5074465;28;20096;-64
2022/07/16 01:35:57;;;;;;;4.65;2.70;;;;;;;;;;5074351;28;20029;-65
2022/07/16 01:38:23;;;;;;;7.65;3.10;;;;;;;;;;5074288;28;20422;-65
2022/07/16 01:40:49;;;;;;;5.05;2.72;;;;;;;;;;5074471;28;20068;-64
2022/07/16 01:43:20;;;;;;;6.43;2.63;;;;;;;;;;5059196;28;20039;-65
2022/07/16 01:45:46;;;;;;;7.22;2.40;;;;;;;;;;5074387;28;20480;-65
2022/07/16 01:48:13;;;;;;;3.15;2.40;;;;;;;;;;5073939;28;20103;-65
2022/07/16 01:50:40;;;;;;;9.00;2.45;;;;;;;;;;5074321;28;20385;-64
2022/07/16 01:53:07;;;;;;;5.15;2.55;;;;;;;;;;5073702;28;20052;-64
2022/07/16 01:55:33;;;;;;;6.03;2.92;;;;;;;;;;5074330;28;20028;-65
2022/07/16 01:58:00;;;;;;;5.93;2.30;;;;;;;;;;5073868;28;20039;-65
2022/07/16 02:00:26;;;;;;;5.93;2.70;;;;;;;;;;5074239;28;20509;-64
2022/07/16 02:02:52;;;;;;;7.15;2.63;;;;;;;;;;5073951;28;20024;-64
2022/07/16 02:05:19;;;;;;;4.90;2.67;;;;;;;;;;5073695;28;20032;-64
2022/07/16 02:07:45;;;;;;;4.65;2.40;;;;;;;;;;5073660;28;20479;-65
2022/07/16 02:10:11;;;;;;;5.93;2.88;;;;;;;;;;5073718;28;20084;-65
2022/07/16 02:12:37;;;;;;;3.60;2.53;;;;;;;;;;5074100;28;20025;-65
2022/07/16 02:15:04;;;;;;;4.90;2.47;;;;;;;;;;5073299;28;20032;-64
2022/07/16 02:17:30;;;;;;;7.25;2.35;;;;;;;;;;5074004;28;20386;-65
2022/07/16 02:19:57;;;;;;;6.95;2.78;;;;;;;;;;5073617;28;20067;-65
2022/07/16 02:22:23;;;;;;;6.10;2.90;;;;;;;;;;5073344;28;20070;-64
2022/07/16 02:24:49;;;;;;;5.93;2.55;;;;;;;;;;5073679;28;20074;-65
2022/07/16 02:27:15;;;;;;;4.22;2.45;;;;;;;;;;5073009;28;20490;-65
2022/07/16 02:29:41;;;;;;;4.28;2.80;;;;;;;;;;5073562;28;20104;-64
2022/07/16 02:32:07;;;;;;;5.63;2.17;;;;;;;;;;5072942;28;20032;-64
2022/07/16 02:34:33;;;;;;;8.73;2.53;;;;;;;;;;5073272;28;20067;-64
2022/07/16 02:36:59;;;;;;;5.68;2.42;;;;;;;;;;5073211;28;20448;-64
2022/07/16 02:39:25;;;;;;;4.57;2.55;;;;;;;;;;5073371;28;20095;-64
2022/07/16 02:41:51;;;;;;;5.63;2.63;;;;;;;;;;5073410;28;20398;-65
2022/07/16 02:44:18;;;;;;;3.50;2.13;;;;;;;;;;5073273;28;20107;-64
2022/07/16 02:46:44;;;;;;;4.05;2.47;;;;;;;;;;5073046;28;20040;-64
2022/07/16 02:49:10;;;;;;;4.00;2.65;;;;;;;;;;5073086;28;20028;-64
2022/07/16 02:51:36;;;;;;;7.07;2.78;;;;;;;;;;5072573;28;20017;-64
2022/07/16 02:54:04;;;;;;;6.25;2.90;;;;;;;;;;5072697;28;20056;-64
2022/07/16 02:56:31;;;;;;;4.13;2.10;;;;;;;;;;5072657;28;20494;-64
2022/07/16 02:58:57;;;;;;;4.72;2.33;;;;;;;;;;5072355;28;20037;-64
2022/07/16 03:01:23;;;;;;;5.53;2.30;;;;;;;;;;5072594;28;20029;-65
2022/07/16 03:03:49;;;;;;;4.82;2.40;;;;;;;;;;5072700;28;20107;-64
2022/07/16 03:06:16;;;;;;;3.08;1.98;;;;;;;;;;5072493;28;20037;-64
2022/07/16 03:08:42;;;;;;;3.03;2.17;;;;;;;;;;5072717;28;20027;-64
2022/07/16 03:11:08;;;;;;;4.90;2.50;;;;;;;;;;5072700;28;20370;-65
2022/07/16 03:13:34;;;;;;;5.47;1.88;;;;;;;;;;5072528;28;20028;-64
2022/07/16 03:16:00;;;;;;;4.82;2.30;;;;;;;;;;5072636;28;20034;-64
2022/07/16 03:18:26;;;;;;;2.92;2.17;;;;;;;;;;5072456;28;20466;-64
2022/07/16 03:20:52;;;;;;;5.32;2.22;;;;;;;;;;5072422;28;20040;-64
2022/07/16 03:23:18;;;;;;;8.23;2.50;;;;;;;;;;5072610;28;20130;-64
2022/07/16 03:25:45;;;;;;;3.63;1.95;;;;;;;;;;5072417;28;20052;-64
2022/07/16 03:28:11;;;;;;;3.13;2.00;;;;;;;;;;5072329;28;20050;-64
2022/07/16 03:30:37;;;;;;;4.45;2.00;;;;;;;;;;5072402;28;20102;-65
2022/07/16 03:33:03;;;;;;;4.88;2.10;;;;;;;;;;5071119;28;20085;-64
2022/07/16 03:35:30;;;;;;;3.50;2.30;;;;;;;;;;5072279;28;20028;-66
2022/07/16 03:40:41;;;;;;;6.60;1.90;;;;;;;;;;5072587;28;20032;-64
2022/07/16 03:43:07;;;;;;;3.63;2.33;;;;;;;;;;5072372;28;20033;-65
2022/07/16 03:45:33;;;;;;;2.72;2.00;;;;;;;;;;5072437;28;20110;-65
2022/07/16 03:48:00;;;;;;;7.22;2.13;;;;;;;;;;5071936;28;20112;-65
2022/07/16 03:50:26;;;;;;;4.30;2.10;;;;;;;;;;5072344;28;20028;-65
2022/07/16 03:52:52;;;;;;;4.55;2.90;;;;;;;;;;5072165;28;20016;-64
2022/07/16 03:55:18;;;;;;;4.03;2.65;;;;;;;;;;5072226;28;20020;-65
2022/07/16 03:57:44;;;;;;;8.25;2.47;;;;;;;;;;5072284;28;20086;-64
2022/07/16 04:00:11;;;;;;;7.22;3.13;;;;;;;;;;5072005;28;20023;-64
2022/07/16 04:02:37;;;;;;;7.10;3.92;;;;;;;;;;5072013;28;20032;-64
2022/07/16 04:05:04;;;;;;;6.32;2.95;;;;;;;;;;5072103;28;20085;-64
2022/07/16 04:07:30;;;;;;;7.25;2.72;;;;;;;;;;5076175;28;20039;-64
2022/07/16 04:09:56;;;;;;;5.05;3.53;;;;;;;;;;5076210;28;20054;-65
2022/07/16 04:12:23;;;;;;;7.68;3.30;;;;;;;;;;5076164;28;20036;-65
2022/07/16 04:14:50;;;;;;;7.25;3.38;;;;;;;;;;5075997;28;20028;-65
2022/07/16 04:17:16;;;;;;;5.05;3.35;;;;;;;;;;5073522;28;20078;-64
2022/07/16 04:19:42;;;;;;;5.63;3.30;;;;;;;;;;5075876;28;20021;-65
2022/07/16 04:22:08;;;;;;;4.97;3.53;;;;;;;;;;5075847;28;20173;-64
2022/07/16 04:24:34;;;;;;;5.03;3.10;;;;;;;;;;5074649;28;20040;-65
2022/07/16 04:27:00;;;;;;;7.35;4.22;;;;;;;;;;5075416;28;20047;-64
2022/07/16 04:29:26;;;;;;;6.78;3.72;;;;;;;;;;5075909;28;20036;-64
2022/07/16 04:31:53;;;;;;;8.20;4.03;;;;;;;;;;5074573;28;20090;-64
2022/07/16 04:34:19;;;;;;;8.88;3.65;;;;;;;;;;5074275;28;20470;-64
2022/07/16 04:36:45;;;;;;;9.70;3.88;;;;;;;;;;5075597;28;20020;-64
2022/07/16 04:39:11;;;;;;;6.47;3.35;;;;;;;;;;5075580;28;20024;-64
2022/07/16 04:41:37;;;;;;;7.63;3.70;;;;;;;;;;5075475;28;20028;-64
2022/07/16 04:44:03;;;;;;;5.90;3.60;;;;;;;;;;5075455;28;20033;-64
2022/07/16 04:46:30;;;;;;;10.75;4.43;;;;;;;;;;5074640;28;20025;-64
2022/07/16 04:48:56;;;;;;;9.50;4.82;;;;;;;;;;5075207;28;20043;-64
2022/07/16 04:51:22;;;;;;;7.35;4.40;;;;;;;;;;5074908;28;20106;-65
2022/07/16 04:53:48;;;;;;;8.98;4.80;;;;;;;;;;5075193;28;20115;-65
2022/07/16 04:56:14;;;;;;;6.47;3.90;;;;;;;;;;5074843;28;20028;-64
2022/07/16 04:58:40;;;;;;;6.97;4.35;;;;;;;;;;5075288;28;20099;-64
2022/07/16 05:01:07;;;;;;;9.88;4.68;;;;;;;;;;5074781;28;20116;-64
2022/07/16 05:03:33;;;;;;;7.10;4.32;;;;;;;;;;5074856;28;20161;-65
2022/07/16 05:05:59;;;;;;;10.02;5.05;;;;;;;;;;5075012;28;20032;-64
2022/07/16 05:08:25;;;;;;;8.05;4.72;;;;;;;;;;5074789;28;20025;-64
2022/07/16 05:10:51;;;;;;;7.28;4.50;;;;;;;;;;5074970;28;20482;-64
2022/07/16 05:13:17;;;;;;;9.70;4.60;;;;;;;;;;5074748;28;20033;-64
2022/07/16 05:15:43;;;;;;;9.98;4.82;;;;;;;;;;5074205;28;20046;-64
2022/07/16 05:18:11;;;;;;;13.30;5.97;;;;;;;;;;5074643;28;20025;-64
2022/07/16 05:20:37;;;;;;;13.25;5.20;;;;;;;;;;5074785;28;20108;-64
2022/07/16 05:23:03;;;;;;;10.85;5.28;;;;;;;;;;5074873;28;20025;-64
2022/07/16 05:25:29;;;;;;;13.35;4.75;;;;;;;;;;5074723;28;20033;-65
2022/07/16 05:27:55;;;;;;;9.43;4.90;;;;;;;;;;5074403;28;20045;-65
2022/07/16 05:30:21;;;;;;;9.35;5.40;;;;;;;;;;5073942;28;20029;-65
2022/07/16 05:32:48;;;;;;;7.38;4.88;;;;;;;;;;5073902;28;20108;-64
2022/07/16 05:35:17;;;;;;;12.10;4.85;;;;;;;;;;5074546;28;20031;-64
2022/07/16 05:37:43;;;;;;;8.68;4.22;;;;;;;;;;5074342;28;20028;-65
2022/07/16 05:40:10;;;;;;;14.20;5.40;;;;;;;;;;5074333;28;20075;-64
2022/07/16 05:42:36;;;;;;;8.52;4.57;;;;;;;;;;5074233;28;20024;-66
2022/07/16 05:45:04;;;;;;;11.00;4.93;;;;;;;;;;5074077;28;20021;-65
2022/07/16 05:47:33;;;;;;;12.68;4.50;;;;;;;;;;5072756;28;20059;-65
2022/07/16 05:50:00;;;;;;;10.55;5.32;;;;;;;;;;5074125;28;20024;-64
2022/07/16 05:52:26;;;;;;;8.30;4.85;;;;;;;;;;5073987;28;20028;-65
2022/07/16 05:54:52;;;;;;;10.63;5.20;;;;;;;;;;5074038;28;20498;-65
2022/07/16 05:57:18;;;;;;;9.90;4.97;;;;;;;;;;5074091;28;20107;-65
2022/07/16 05:59:44;;;;;;;13.50;4.95;;;;;;;;;;5073380;28;20067;-64
2022/07/16 06:02:10;;;;;;;8.38;4.93;;;;;;;;;;5073726;28;20052;-66
2022/07/16 06:04:36;;;;;;;13.32;4.78;;;;;;;;;;5073398;28;20444;-65
2022/07/16 06:07:03;;;;;;;8.63;4.57;;;;;;;;;;5089102;28;20433;-65
2022/07/16 06:09:29;;;;;;;11.75;5.03;;;;;;;;;;5073839;28;20397;-65
2022/07/16 06:11:55;;;;;;;9.00;5.07;;;;;;;;;;5073582;28;20025;-64
2022/07/16 06:14:21;;;;;;;12.65;5.30;;;;;;;;;;5072261;28;20399;-65
2022/07/16 06:16:48;;;;;;;13.68;4.70;;;;;;;;;;5073369;28;20078;-65
2022/07/16 06:19:14;;;;;;;11.45;4.57;;;;;;;;;;5073701;28;20379;-65
2022/07/16 06:21:40;;;;;;;9.57;4.85;;;;;;;;;;5073581;28;20032;-64
2022/07/16 06:24:06;;;;;;;10.52;4.53;;;;;;;;;;5073776;28;20028;-64
2022/07/16 06:26:32;;;;;;;7.85;4.43;;;;;;;;;;5073424;28;20035;-64
2022/07/16 06:28:58;;;;;;;14.25;5.18;;;;;;;;;;5072261;28;20121;-64
2022/07/16 06:31:25;;;;;;;9.07;4.40;;;;;;;;;;5072618;28;20024;-64
2022/07/16 06:33:51;;;;;;;14.07;4.85;;;;;;;;;;5073239;28;20028;-64
2022/07/16 06:36:17;;;;;;;12.32;5.43;;;;;;;;;;5072639;28;20497;-64
2022/07/16 06:38:43;;;;;;;9.20;4.95;;;;;;;;;;5073093;28;20078;-65
2022/07/16 06:41:09;;;;;;;9.05;4.55;;;;;;;;;;5073013;28;20029;-64
2022/07/16 06:43:36;;;;;;;8.65;5.35;;;;;;;;;;5071952;28;20056;-65
2022/07/16 06:46:02;;;;;;;17.48;5.35;;;;;;;;;;5072739;28;20024;-65
2022/07/16 06:48:28;;;;;;;11.63;4.15;;;;;;;;;;5072472;28;20108;-65
2022/07/16 06:50:54;;;;;;;8.30;4.93;;;;;;;;;;5072760;28;20028;-65
2022/07/16 06:53:20;;;;;;;13.00;5.03;;;;;;;;;;5072352;28;20043;-65
2022/07/16 06:55:46;;;;;;;7.00;4.32;;;;;;;;;;5072629;28;20020;-64
2022/07/16 06:58:12;;;;;;;10.05;4.70;;;;;;;;;;5071543;28;20486;-65
2022/07/16 07:00:39;;;;;;;11.90;4.88;;;;;;;;;;5071693;28;20040;-64
2022/07/16 07:03:05;;;;;;;10.95;4.40;;;;;;;;;;5071964;28;20042;-65
2022/07/16 07:05:31;;;;;;;12.18;4.55;;;;;;;;;;5071976;28;20032;-64
2022/07/16 07:07:57;;;;;;;8.70;5.05;;;;;;;;;;5071406;28;20040;-64
2022/07/16 07:10:23;;;;;;;10.35;4.10;;;;;;;;;;5071988;28;20023;-64
2022/07/16 07:12:52;;;;;;;10.75;4.28;;;;;;;;;;5070805;28;20036;-64
2022/07/16 07:15:20;;;;;;;6.45;3.78;;;;;;;;;;5073577;28;20048;-64
2022/07/16 07:17:46;;;;;;;7.38;3.60;;;;;;;;;;5082525;28;20095;-65
2022/07/16 07:20:12;;;;;;;12.57;4.10;;;;;;;;;;5071795;28;20025;-65
2022/07/16 07:22:39;;;;;;;6.32;4.30;;;;;;;;;;5072541;28;20082;-65
2022/07/16 07:25:05;;;;;;;8.27;3.40;;;;;;;;;;5071672;28;20029;-65
2022/07/16 07:27:31;;;;;;;8.85;3.72;;;;;;;;;;5071577;28;20114;-65
2022/07/16 07:29:57;;;;;;;10.77;3.58;;;;;;;;;;5072694;28;20029;-65
2022/07/16 07:32:23;;;;;;;8.20;3.80;;;;;;;;;;5071740;28;20403;-65
2022/07/16 07:34:49;;;;;;;7.32;3.53;;;;;;;;;;5070955;28;20104;-65
2022/07/16 07:37:16;;;;;;;6.80;2.80;;;;;;;;;;5071925;28;20032;-65
2022/07/16 07:39:42;;;;;;;7.72;2.90;;;;;;;;;;5071691;28;20059;-65
2022/07/16 07:42:09;;;;;;;15.55;3.40;;;;;;;;;;5072073;28;20064;-64
2022/07/16 07:44:35;;;;;;;6.85;3.13;;;;;;;;;;5071507;28;20029;-65
2022/07/16 07:47:02;;;;;;;5.28;2.70;;;;;;;;;;5072260;28;20024;-65
2022/07/16 07:49:28;;;;;;;8.43;2.60;;;;;;;;;;5072406;28;20056;-65
2022/07/16 07:51:54;;;;;;;6.65;2.40;;;;;;;;;;5071643;28;20575;-65
2022/07/16 07:54:21;;;;;;;6.70;2.65;;;;;;;;;;5071044;28;20599;-65
2022/07/16 07:56:47;;;;;;;7.60;2.40;;;;;;;;;;5070743;28;20079;-65
2022/07/16 07:59:14;;;;;;;8.48;2.88;;;;;;;;;;5087827;28;20028;-66
2022/07/16 08:01:40;;;;;;;4.45;2.30;;;;;;;;;;5072144;28;20108;-65
2022/07/16 08:04:06;;;;;;;3.65;2.25;;;;;;;;;;5072390;28;20488;-65
2022/07/16 08:06:32;;;;;;;3.60;2.08;;;;;;;;;;5072047;28;20115;-65
2022/07/16 08:08:58;;;;;;;3.65;2.15;;;;;;;;;;5071873;28;20043;-65
2022/07/16 08:11:24;;;;;;;7.28;2.20;;;;;;;;;;5071934;28;20033;-65
2022/07/16 08:13:50;;;;;;;7.22;2.55;;;;;;;;;;5068497;28;20013;-65
2022/07/16 08:16:17;;;;;;;5.65;1.90;;;;;;;;;;5070316;28;20025;-65
2022/07/16 08:18:43;;;;;;;8.57;2.00;;;;;;;;;;5069974;28;20082;-66
2022/07/16 08:21:09;;;;;;;3.60;1.75;;;;;;;;;;5069631;28;20077;-65
2022/07/16 08:26:20;;;;;;;3.13;1.50;;;;;;;;;;5069284;28;20036;-65
2022/07/16 08:28:46;;;;;;;5.70;1.77;;;;;;;;;;5069123;28;20065;-66
2022/07/16 08:31:13;;;;;;;9.50;1.50;;;;;;;;;;5068314;28;20108;-66
2022/07/16 08:33:39;;;;;;;5.53;1.92;;;;;;;;;;5069582;28;20025;-65
2022/07/16 08:36:05;;;;;;;4.68;1.58;;;;;;;;;;5069184;28;20568;-65
2022/07/16 08:38:32;;;;;;;4.43;1.77;;;;;;;;;;5070475;28;20453;-65
2022/07/16 08:40:58;;;;;;;5.32;1.73;;;;;;;;;;5070745;28;20031;-65
2022/07/16 08:43:24;;;;;;;1.88;1.30;;;;;;;;;;5070007;28;20482;-65
2022/07/16 08:45:51;;;;;;;3.03;1.73;;;;;;;;;;5070746;28;20025;-65
2022/07/16 08:48:17;;;;;;;5.25;2.22;;;;;;;;;;5070525;28;20024;-65
2022/07/16 08:50:44;;;;;;;4.95;1.50;;;;;;;;;;5070892;28;20408;-65
2022/07/16 08:53:10;;;;;;;5.25;1.55;;;;;;;;;;5073761;28;20025;-66
2022/07/16 08:55:38;;;;;;;6.55;1.67;;;;;;;;;;5074117;28;20036;-65
2022/07/16 08:58:06;;;;;;;2.30;1.27;;;;;;;;;;5073503;28;20043;-65
2022/07/16 09:00:34;;;;;;;2.97;1.35;;;;;;;;;;5073882;28;20021;-65
2022/07/16 09:03:00;;;;;;;3.42;1.38;;;;;;;;;;5073910;28;20036;-65
2022/07/16 09:05:26;;;;;;;3.40;1.30;;;;;;;;;;5074490;28;20098;-65
2022/07/16 09:07:53;;;;;;;2.53;1.40;;;;;;;;;;5073665;28;20032;-65
2022/07/16 09:10:19;;;;;;;5.20;1.50;;;;;;;;;;5074251;28;20500;-65
2022/07/16 09:12:47;;;;;;;2.08;1.30;;;;;;;;;;5073927;28;20107;-66
2022/07/16 09:15:24;;;;;;;3.15;1.30;;;;;;;;;;5073971;28;20585;-65
2022/07/16 09:18:08;;;;;;;5.82;1.50;;;;;;;;;;5073117;28;20525;-66
2022/07/16 09:20:35;;;;;;;5.30;1.40;;;;;;;;;;5073731;28;20056;-65
2022/07/16 09:23:02;;;;;;;1.95;1.30;;;;;;;;;;5073611;28;20406;-65
2022/07/16 09:25:28;;;;;;;3.30;1.42;;;;;;;;;;5073743;28;20060;-65
2022/07/16 09:27:58;;;;;;;2.30;1.27;;;;;;;;;;5071935;28;20049;-65
2022/07/16 09:30:25;;;;;;;4.43;1.30;;;;;;;;;;5073659;28;20407;-65
2022/07/16 09:32:51;;;;;;;4.78;1.92;;;;;;;;;;5073622;28;20032;-65
2022/07/16 09:35:18;;;;;;;4.93;1.27;;;;;;;;;;5074105;28;20039;-65
2022/07/16 09:37:51;;;;;;;2.75;1.13;;;;;;;;;;5073229;28;20501;-65
2022/07/16 09:40:31;;;;;;;2.35;1.40;;;;;;;;;;5073609;28;20024;-65
2022/07/16 09:42:58;;;;;;;2.95;1.30;;;;;;;;;;5071263;28;20024;-65
2022/07/16 09:45:24;;;;;;;1.33;1.23;;;;;;;;;;5073936;28;20115;-65
2022/07/16 09:47:50;;;;;;;2.70;1.30;;;;;;;;;;5073380;28;20458;-66
2022/07/16 09:50:16;;;;;;;4.63;1.27;;;;;;;;;;5073356;28;20482;-65
2022/07/16 09:52:43;;;;;;;1.77;1.20;;;;;;;;;;5073323;28;20086;-65
2022/07/16 09:55:09;;;;;;;4.47;1.42;;;;;;;;;;5073153;28;20021;-65
2022/07/16 09:57:36;;;;;;;2.90;1.10;;;;;;;;;;5072778;28;20559;-65
2022/07/16 10:00:03;;;;;;;5.18;1.60;;;;;;;;;;5072703;28;20101;-65
2022/07/16 10:02:38;;;;;;;1.92;1.23;;;;;;;;;;5072415;28;20052;-65
2022/07/16 10:05:04;;;;;;;1.77;1.15;;;;;;;;;;5072535;28;20451;-65
2022/07/16 10:07:31;;;;;;;3.45;1.40;;;;;;;;;;5073397;28;20021;-65
2022/07/16 10:09:57;;;;;;;4.80;1.25;;;;;;;;;;5072521;28;20024;-65
2022/07/16 10:12:24;;;;;;;2.28;1.40;;;;;;;;;;5072474;28;20056;-65
2022/07/16 10:14:51;;;;;;;5.78;1.17;;;;;;;;;;5072749;28;20050;-65
2022/07/16 10:17:30;;;;;;;3.22;1.60;;;;;;;;;;5065640;28;20347;-65
2022/07/16 10:20:00;;;;;;;4.32;1.38;;;;;;;;;;5072515;28;20164;-65
2022/07/16 10:22:33;;;;;;;4.70;1.40;;;;;;;;;;5070629;28;20036;-65
2022/07/16 10:24:59;;;;;;;2.00;1.00;;;;;;;;;;5072906;28;20060;-65
2022/07/16 10:27:32;;;;;;;2.28;1.48;;;;;;;;;;5072307;28;20098;-65
2022/07/16 10:30:17;;;;;;;4.50;1.40;;;;;;;;;;5072574;28;20115;-66
2022/07/16 10:33:09;;;;;;;4.28;1.23;;;;;;;;;;5072149;28;20013;-65
2022/07/16 10:35:38;;;;;;;5.60;1.20;;;;;;;;;;5072261;28;20035;-65
2022/07/16 10:38:18;;;;;;;3.92;1.33;;;;;;;;;;5071187;28;20070;-65
2022/07/16 10:40:45;;;;;;;3.50;1.15;;;;;;;;;;5072832;28;20033;-65
2022/07/16 10:43:18;;;;;;;15.55;1.67;;;;;;;;;;5072306;28;20458;-65
2022/07/16 10:45:54;;;;;;;1.15;1.02;;;;;;;;;;5072411;28;20036;-65
2022/07/16 10:48:39;;;;;;;3.03;1.33;;;;;;;;;;5071935;28;20036;-65
2022/07/16 10:51:14;;;;;;;3.53;1.25;;;;;;;;;;5072050;28;20024;-65
2022/07/16 10:53:56;;;;;;;5.03;1.20;;;;;;;;;;5071521;28;20052;-65
2022/07/16 10:56:38;;;;;;;1.98;1.13;;;;;;;;;;5067825;28;20032;-65
2022/07/16 10:59:10;;;;;;;6.07;1.23;;;;;;;;;;5069875;28;20417;-65
2022/07/16 11:01:37;;;;;;;1.33;1.00;;;;;;;;;;5071222;28;20062;-65
2022/07/16 11:04:04;;;;;;;2.85;1.30;;;;;;;;;;5070193;28;20048;-65
2022/07/16 11:06:30;;;;;;;5.63;1.23;;;;;;;;;;5072100;28;20027;-65
2022/07/16 11:08:57;;;;;;;3.47;1.20;;;;;;;;;;5071151;28;20105;-65
2022/07/16 11:11:23;;;;;;;3.30;1.45;;;;;;;;;;5071484;28;20074;-65
2022/07/16 11:13:49;;;;;;;5.55;1.40;;;;;;;;;;5071497;28;20017;-65
2022/07/16 11:16:16;;;;;;;3.47;1.48;;;;;;;;;;5063889;28;20025;-65
2022/07/16 11:18:42;;;;;;;2.05;1.27;;;;;;;;;;5071305;28;20036;-65
2022/07/16 11:21:08;;;;;;;3.47;1.35;;;;;;;;;;5070657;28;20036;-66
2022/07/16 11:23:58;;;;;;;2.78;1.15;;;;;;;;;;5068388;28;20398;-65
2022/07/16 11:26:24;;;;;;;2.25;1.17;;;;;;;;;;5066110;28;20043;-65
2022/07/16 11:28:54;;;;;;;2.10;1.27;;;;;;;;;;5070656;28;20036;-65
2022/07/16 11:31:38;;;;;;;3.17;1.40;;;;;;;;;;5070936;28;20051;-65
2022/07/16 11:34:24;;;;;;;4.13;1.30;;;;;;;;;;5065582;28;20097;-65
2022/07/16 11:36:52;;;;;;;5.25;1.30;;;;;;;;;;5009390;28;20045;-65
2022/07/16 11:39:19;;;;;;;1.83;1.08;;;;;;;;;;5009202;28;20722;-65
2022/07/16 11:41:47;;;;;;;2.30;1.40;;;;;;;;;;5009421;28;20065;-65
2022/07/16 11:44:15;;;;;;;3.17;1.20;;;;;;;;;;5008964;28;20026;-65
2022/07/16 11:46:53;;;;;;;3.72;1.30;;;;;;;;;;5008718;28;20091;-65
2022/07/16 11:49:40;;;;;;;1.90;1.23;;;;;;;;;;5008995;28;20097;-64
2022/07/16 11:52:09;;;;;;;2.28;1.40;;;;;;;;;;5006259;28;20471;-65
2022/07/16 11:54:40;;;;;;;4.10;1.30;;;;;;;;;;5008801;28;20049;-65
2022/07/16 11:57:08;;;;;;;3.47;1.23;;;;;;;;;;4991898;28;20083;-65
2022/07/16 11:59:34;;;;;;;2.97;1.00;;;;;;;;;;5008500;28;20037;-65
2022/07/16 12:02:00;;;;;;;4.70;1.30;;;;;;;;;;5008230;28;20077;-64
2022/07/16 12:04:40;;;;;;;2.45;1.30;;;;;;;;;;5008658;28;20504;-65
2022/07/16 12:07:07;;;;;;;2.65;1.50;;;;;;;;;;5006708;28;20038;-65
2022/07/16 12:09:40;;;;;;;1.95;1.25;;;;;;;;;;5004124;28;20029;-65
2022/07/16 12:12:09;;;;;;;4.70;1.20;;;;;;;;;;5001421;28;20456;-65
2022/07/16 12:14:49;;;;;;;3.95;1.50;;;;;;;;;;5051744;28;20068;-65
2022/07/16 12:17:31;;;;;;;2.15;1.13;;;;;;;;;;5070154;28;20048;-65
2022/07/16 12:20:14;;;;;;;3.05;1.17;;;;;;;;;;5070535;28;20033;-65
2022/07/16 12:23:06;;;;;;;1.63;1.35;;;;;;;;;;5070511;28;20049;-65
2022/07/16 12:25:38;;;;;;;1.58;1.27;;;;;;;;;;5068925;28;20478;-65
2022/07/16 12:28:05;;;;;;;1.40;1.02;;;;;;;;;;5070503;28;20410;-58
2022/07/16 12:30:45;;;;;;;3.53;1.40;;;;;;;;;;5073835;28;20024;-58
2022/07/16 12:33:23;;;;;;;5.47;1.10;;;;;;;;;;5074267;28;20103;-58
2022/07/16 12:36:00;;;;;;;2.33;1.35;;;;;;;;;;5090306;28;20090;-58
2022/07/16 12:38:41;;;;;;;2.35;1.55;;;;;;;;;;5074352;28;20028;-58
2022/07/16 12:41:12;;;;;;;2.33;1.30;;;;;;;;;;5074352;28;20021;-58
2022/07/16 12:43:39;;;;;;;1.90;1.20;;;;;;;;;;5066687;28;20161;-58
2022/07/16 12:46:06;;;;;;;2.03;1.35;;;;;;;;;;5073703;28;20046;-58
2022/07/16 12:48:39;;;;;;;4.57;1.20;;;;;;;;;;5074414;28;20109;-58
2022/07/16 12:51:06;;;;;;;1.75;1.40;;;;;;;;;;5074314;28;20035;-58
2022/07/16 12:53:32;;;;;;;2.65;1.23;;;;;;;;;;5072550;28;20037;-58
2022/07/16 12:58:49;;;;;;;2.65;1.38;;;;;;;;;;5073887;28;20141;-58
2022/07/16 13:01:24;;;;;;;5.40;1.27;;;;;;;;;;5068102;28;20111;-58
2022/07/16 13:03:51;;;;;;;3.08;1.48;;;;;;;;;;5067589;28;20394;-58
2022/07/16 13:06:17;;;;;;;2.55;1.60;;;;;;;;;;5073800;28;20017;-58
2022/07/16 13:08:43;;;;;;;3.78;1.25;;;;;;;;;;5074007;28;20115;-58
2022/07/16 13:11:10;;;;;;;4.53;1.67;;;;;;;;;;5074221;28;20029;-58
2022/07/16 13:13:37;;;;;;;2.72;1.23;;;;;;;;;;5073655;28;20026;-58
2022/07/16 13:16:04;;;;;;;4.00;1.58;;;;;;;;;;5073326;28;20501;-58
2022/07/16 13:18:30;;;;;;;5.47;1.60;;;;;;;;;;5072906;28;20031;-58
2022/07/16 13:20:57;;;;;;;1.67;1.40;;;;;;;;;;5073687;28;20067;-58
2022/07/16 13:23:23;;;;;;;4.20;1.50;;;;;;;;;;5072615;28;20032;-58
2022/07/16 13:25:51;;;;;;;2.22;1.48;;;;;;;;;;5073613;28;20112;-58
2022/07/16 13:28:17;;;;;;;3.35;1.42;;;;;;;;;;5073244;28;20086;-58
2022/07/16 13:30:48;;;;;;;3.58;1.33;;;;;;;;;;5073491;28;20017;-58
2022/07/16 13:33:14;;;;;;;3.03;1.52;;;;;;;;;;5073286;28;20284;-58
2022/07/16 13:35:41;;;;;;;8.57;1.80;;;;;;;;;;5073407;28;20052;-58
2022/07/16 13:38:08;;;;;;;2.85;1.60;;;;;;;;;;5072619;28;20028;-58
2022/07/16 13:40:34;;;;;;;4.18;1.50;;;;;;;;;;5073210;28;20024;-58
2022/07/16 13:43:00;;;;;;;5.15;1.25;;;;;;;;;;5072175;28;20421;-58
2022/07/16 13:45:26;;;;;;;4.40;1.50;;;;;;;;;;5072655;28;20036;-58
2022/07/16 13:47:53;;;;;;;4.25;1.50;;;;;;;;;;5073028;28;20036;-58
2022/07/16 13:50:20;;;;;;;2.78;1.27;;;;;;;;;;5073085;28;20390;-58
2022/07/16 13:52:46;;;;;;;2.95;1.73;;;;;;;;;;5072042;28;20028;-58
2022/07/16 13:55:13;;;;;;;2.20;1.23;;;;;;;;;;5073010;28;20070;-58
2022/07/16 14:00:25;;;;;;;3.92;1.30;;;;;;;;;;5069681;28;20123;-58
2022/07/16 14:02:52;;;;;;;4.32;1.30;;;;;;;;;;5065727;28;20020;-58
2022/07/16 14:05:18;;;;;;;4.40;1.63;;;;;;;;;;5072564;28;20036;-58
2022/07/16 14:07:44;;;;;;;3.35;1.50;;;;;;;;;;5072517;28;20043;-58
2022/07/16 14:10:13;;;;;;;4.03;1.25;;;;;;;;;;5072724;28;20017;-58
2022/07/16 14:12:39;;;;;;;3.53;1.55;;;;;;;;;;5071459;28;20037;-57
2022/07/16 14:15:06;;;;;;;3.90;1.58;;;;;;;;;;5072697;28;20048;-58
2022/07/16 14:17:32;;;;;;;3.17;1.25;;;;;;;;;;5072228;28;20402;-57
2022/07/16 14:19:58;;;;;;;4.65;1.50;;;;;;;;;;5072332;28;20433;-58
2022/07/16 14:22:24;;;;;;;5.68;1.60;;;;;;;;;;5072254;28;20563;-58
2022/07/16 14:24:50;;;;;;;4.35;1.35;;;;;;;;;;5072676;28;20086;-58
2022/07/16 14:27:16;;;;;;;2.80;1.60;;;;;;;;;;5072236;28;20047;-58
2022/07/16 14:29:43;;;;;;;2.97;1.45;;;;;;;;;;5071447;28;20153;-58
2022/07/16 14:32:09;;;;;;;2.47;1.42;;;;;;;;;;5072103;28;20031;-58
2022/07/16 14:34:36;;;;;;;4.50;1.52;;;;;;;;;;5071178;28;20390;-58
2022/07/16 14:37:02;;;;;;;5.65;1.67;;;;;;;;;;5072569;28;20013;-58
2022/07/16 14:39:28;;;;;;;5.45;1.70;;;;;;;;;;5072318;28;20035;-58
2022/07/16 14:41:54;;;;;;;4.43;1.52;;;;;;;;;;5072001;28;20513;-58
2022/07/16 14:44:20;;;;;;;5.80;2.22;;;;;;;;;;5072142;28;20037;-58
2022/07/16 14:46:46;;;;;;;3.08;1.73;;;;;;;;;;5072356;28;20039;-58
2022/07/16 14:49:12;;;;;;;2.88;1.50;;;;;;;;;;5071853;28;20043;-58
2022/07/16 14:51:39;;;;;;;4.32;1.73;;;;;;;;;;5072012;28;20020;-58
2022/07/16 14:54:05;;;;;;;4.00;1.77;;;;;;;;;;5072048;28;20021;-58
2022/07/16 14:56:31;;;;;;;3.78;1.58;;;;;;;;;;5072042;28;20112;-58